Flight Track Log - Related Links

Times and Time Zones

All times are in EDT time to prevent confusion due to time zone crossing. See the EGF4039 flight status page for this flight to view local times or setup timezone preferences in your user account.


Time Position Orientation Groundspeed Altitude Reporting Facility
EDT Latitude Longitude Course Direction KTS MPH feet Rate Location/Type
Wed 04:50:00 PM 42.5281 -92.2447 97° East 238 274 5,800  Level Chicago Center
Wed 04:51:03 PM 42.5217 -92.1458 95° East 253 291 8,700 2,400 Climbing Chicago Center
Wed 04:52:00 PM 42.4945 -91.8053 97° East  Level FlightAware Approximate
Wed 04:52:05 PM 42.5136 -92.0433 96° East 269 310 10,800  Level Chicago Center
Wed 04:53:00 PM 42.4836 -91.6861 97° East  Level FlightAware Approximate
Wed 04:53:07 PM 42.5011 -91.8967 97° East 322 371 12,100  Level Chicago Center
Wed 04:54:00 PM 42.4768 -91.5646 97° East  Level FlightAware Approximate
Wed 04:54:09 PM 42.4906 -91.7628 96° East 354 407 13,500  Level Chicago Center
Wed 04:55:00 PM 42.4652 -91.4435 97° East  Level FlightAware Approximate
Wed 04:55:11 PM 42.4806 -91.6283 96° East 366 421 15,100  Level Chicago Center
Wed 04:56:13 PM 42.4697 -91.4914 96° East 372 428 16,700 1,694 Climbing Chicago Center
Wed 04:57:15 PM 42.4556 -91.3269 97° East 373 429 18,600 2,081 Climbing Chicago Center
Wed 04:58:17 PM 42.4442 -91.1881 96° East 377 434 21,000 1,887 Climbing Chicago Center
Wed 04:59:19 PM 42.4317 -91.0542 97° East 368 423 22,500 968 Climbing Chicago Center
Wed 05:00:21 PM 42.4192 -90.9153 97° East 374 430 23,000 240 Climbing Chicago Center
Wed 05:01:24 PM 42.4042 -90.7503 97° East 374 430 23,000  Level Chicago Center
Wed 05:02:26 PM 42.4067 -90.6164 89° East 362 417 23,000  Level Chicago Center
Wed 05:03:28 PM 42.4247 -90.4694 81° East 396 456 23,000  Level Chicago Center
Wed 05:04:30 PM 42.4414 -90.3194 81° East 406 467 23,000  Level Chicago Center
Wed 05:05:32 PM 42.4581 -90.1406 83° East 406 467 23,000  Level Chicago Center
Wed 05:06:34 PM 42.4731 -89.9881 82° East 410 472 23,000 -387 Level Chicago Center
Wed 05:07:36 PM 42.4900 -89.8233 82° East 408 470 22,200 -1,065 Descending Chicago Center
Wed 05:08:38 PM 42.5033 -89.6750 83° East 399 459 20,800 -1,500 Descending Chicago Center
Wed 05:09:40 PM 42.5172 -89.5328 82° East 385 443 19,100 -1,694 Descending Chicago Center
Wed 05:10:42 PM 42.5314 -89.3925 82° East 376 433 17,300 -1,839 Descending Chicago Center
Wed 05:11:44 PM 42.5439 -89.2553 83° East 368 423 15,300 -1,584 Descending Chicago Center
Wed 05:12:47 PM 42.5556 -89.1008 84° East 358 412 14,000 -1,440 Descending Chicago Center
Wed 05:13:49 PM 42.5250 -88.9919 111° Southeast 316 364 12,300 -919 Descending Chicago Center
Wed 05:14:51 PM 42.4919 -88.8867 113° Southeast 307 353 12,100 -290 Descending Chicago Center
Wed 05:15:53 PM 42.4600 -88.7783 112° Southeast 309 356 11,700 -823 Descending Chicago Center
Wed 05:16:55 PM 42.4281 -88.6731 112° Southeast 306 352 10,400 -1,258 Descending Chicago Center
Wed 05:17:57 PM 42.3958 -88.5661 112° Southeast 278 320 9,100 -629 Descending Chicago Center
Wed 05:18:59 PM 42.3694 -88.4856 114° Southeast 249 287 9,100 -484 Level Chicago Center
Wed 05:20:01 PM 42.3381 -88.4042 118° Southeast 245 282 8,100 -1,016 Descending Chicago Center
Wed 05:21:03 PM 42.3044 -88.3139 117° Southeast 248 285 7,000 -528 Descending Chicago Center
Wed 05:22:06 PM 42.2689 -88.2375 122° Southeast 247 284 7,000 -48 Level Chicago Center
Wed 05:23:08 PM 42.2128 -88.1894 148° Southeast 242 278 6,900 -97 Descending Chicago Center

Login

Don't have an account? Register now (free) for customized features, flight alerts, and more!